createdAt,value
2022-08-03T00:01:34.870Z,100732.25
2022-08-03T00:04:01.906Z,100729.25
2022-08-03T00:06:28.480Z,100727.56
2022-08-03T00:08:55.055Z,100727.84
2022-08-03T00:11:21.651Z,100729.66
2022-08-03T00:13:48.463Z,100731.56
2022-08-03T00:16:15.373Z,100725.19
2022-08-03T00:18:41.844Z,100727.72
2022-08-03T00:21:08.447Z,100721.81
2022-08-03T00:23:52.510Z,100724.25
2022-08-03T00:26:20.781Z,100722.22
2022-08-03T00:28:47.540Z,100717.63
2022-08-03T00:31:14.047Z,100721.88
2022-08-03T00:33:58.056Z,100726.28
2022-08-03T00:36:26.969Z,100721.13
2022-08-03T00:38:53.562Z,100714.94
2022-08-03T00:41:20.066Z,100722.44
2022-08-03T00:43:47.491Z,100722.44
2022-08-03T00:46:17.713Z,100715.78
2022-08-03T00:48:47.353Z,100713.28
2022-08-03T00:51:14.070Z,100718.56
2022-08-03T00:53:41.184Z,100705.59
2022-08-03T00:56:07.815Z,100714.09
2022-08-03T00:58:34.467Z,100709.78
2022-08-03T01:01:01.085Z,100701.91
2022-08-03T01:03:27.748Z,100700.53
2022-08-03T01:06:18.333Z,100708.09
2022-08-03T01:08:59.903Z,100700.13
2022-08-03T01:11:26.322Z,100703.22
2022-08-03T01:14:34.685Z,100707.00
2022-08-03T01:17:22.071Z,100702.22
2022-08-03T01:19:54.516Z,100709.03
2022-08-03T01:22:23.758Z,100712.06
2022-08-03T01:24:50.192Z,100711.56
2022-08-03T01:27:29.327Z,100708.03
2022-08-03T01:30:08.268Z,100703.31
2022-08-03T01:33:12.449Z,100709.72
2022-08-03T01:35:46.861Z,100700.63
2022-08-03T01:38:28.854Z,100706.38
2022-08-03T01:40:56.685Z,100705.00
2022-08-03T01:43:59.031Z,100704.34
2022-08-03T01:46:17.075Z,100705.19
2022-08-03T01:48:46.257Z,100706.03
2022-08-03T01:51:15.552Z,100707.72
2022-08-03T01:53:45.449Z,100704.16
2022-08-03T01:56:13.978Z,100703.66
2022-08-03T01:58:43.681Z,100710.97
2022-08-03T02:01:11.931Z,100705.69
2022-08-03T02:04:00.077Z,100707.91
2022-08-03T02:06:59.814Z,100707.88
2022-08-03T02:09:20.839Z,100705.03
2022-08-03T02:11:47.963Z,100704.69
2022-08-03T02:14:15.887Z,100706.19
2022-08-03T02:16:44.626Z,100705.19
2022-08-03T02:19:11.797Z,100705.84
2022-08-03T02:21:57.408Z,100705.69
2022-08-03T02:24:25.296Z,100705.38
2022-08-03T02:26:55.499Z,100699.09
2022-08-03T02:29:39.476Z,100706.72
2022-08-03T02:32:12.461Z,100708.22
2022-08-03T02:34:40.750Z,100701.97
2022-08-03T02:37:10.258Z,100693.53
2022-08-03T02:39:37.684Z,100693.69
2022-08-03T02:42:08.561Z,100694.88
2022-08-03T02:44:37.152Z,100692.16
2022-08-03T02:47:07.390Z,100693.88
2022-08-03T02:49:50.502Z,100701.97
2022-08-03T02:52:21.039Z,100697.56
2022-08-03T02:54:51.337Z,100690.47
2022-08-03T02:57:19.958Z,100687.75
2022-08-03T02:59:47.410Z,100691.94
2022-08-03T03:02:16.929Z,100687.41
2022-08-03T03:05:51.792Z,100690.41
2022-08-03T03:07:39.131Z,100691.50
2022-08-03T03:10:21.606Z,100688.09
2022-08-03T03:12:50.356Z,100684.16
2022-08-03T03:15:16.922Z,100681.75
2022-08-03T03:17:44.122Z,100675.22
2022-08-03T03:20:11.744Z,100685.91
2022-08-03T03:22:40.104Z,100683.31
2022-08-03T03:25:10.362Z,100676.50
2022-08-03T03:27:37.122Z,100677.34
2022-08-03T03:30:05.611Z,100678.72
2022-08-03T03:32:32.528Z,100686.16
2022-08-03T03:34:59.629Z,100689.09
2022-08-03T03:37:29.336Z,100685.06
2022-08-03T03:39:56.081Z,100687.59
2022-08-03T03:42:23.411Z,100688.06
2022-08-03T03:44:49.972Z,100688.63
2022-08-03T03:47:16.784Z,100689.22
2022-08-03T03:49:45.001Z,100689.03
2022-08-03T03:52:11.686Z,100693.81
2022-08-03T03:54:42.650Z,100690.72
2022-08-03T03:57:13.789Z,100687.53
2022-08-03T03:59:43.946Z,100692.44
2022-08-03T04:02:11.868Z,100687.22
2022-08-03T04:04:57.143Z,100698.03
2022-08-03T04:07:43.422Z,100683.94
2022-08-03T04:10:40.914Z,100690.38
2022-08-03T04:13:10.695Z,100689.66
2022-08-03T04:15:39.912Z,100692.25
2022-08-03T04:18:09.821Z,100693.38
2022-08-03T04:20:38.774Z,100698.53
2022-08-03T04:23:15.417Z,100697.09
2022-08-03T04:25:43.895Z,100700.59
2022-08-03T04:28:30.450Z,100695.91
2022-08-03T04:30:59.275Z,100697.03
2022-08-03T04:33:29.209Z,100684.06
2022-08-03T04:36:02.734Z,100703.97
2022-08-03T04:38:32.833Z,100705.06
2022-08-03T04:41:01.053Z,100706.00
2022-08-03T04:43:28.685Z,100701.19
2022-08-03T04:45:57.064Z,100707.97
2022-08-03T04:48:24.394Z,100712.06
2022-08-03T04:50:51.704Z,100705.25
2022-08-03T04:53:18.217Z,100704.44
2022-08-03T04:55:46.549Z,100707.66
2022-08-03T04:58:13.065Z,100712.59
2022-08-03T05:00:39.617Z,100706.28
2022-08-03T05:03:23.770Z,100711.78
2022-08-03T05:06:01.792Z,100717.38
2022-08-03T05:08:36.854Z,100709.94
2022-08-03T05:11:13.100Z,100719.75
2022-08-03T05:13:39.608Z,100717.72
2022-08-03T05:16:06.056Z,100721.41
2022-08-03T05:18:32.491Z,100724.31
2022-08-03T05:20:59.316Z,100723.47
2022-08-03T05:23:25.820Z,100719.88
2022-08-03T05:25:52.314Z,100713.81
2022-08-03T05:28:18.978Z,100714.47
2022-08-03T05:30:45.481Z,100720.41
2022-08-03T05:33:11.957Z,100716.72
2022-08-03T05:35:56.794Z,100714.81
2022-08-03T05:38:28.644Z,100704.97
2022-08-03T05:41:21.756Z,100716.50
2022-08-03T05:43:44.173Z,100706.13
2022-08-03T05:46:12.049Z,100706.34
2022-08-03T05:48:39.774Z,100707.88
2022-08-03T05:51:07.700Z,100704.41
2022-08-03T05:53:34.968Z,100703.88
2022-08-03T05:56:03.655Z,100697.38
2022-08-03T05:58:42.274Z,100694.16
2022-08-03T06:01:08.814Z,100697.72
2022-08-03T06:03:35.347Z,100696.31
2022-08-03T06:06:01.854Z,100698.41
2022-08-03T06:08:28.409Z,100698.59
2022-08-03T06:10:54.977Z,100698.47
2022-08-03T06:13:22.022Z,100693.59
2022-08-03T06:15:48.661Z,100686.81
2022-08-03T06:18:15.119Z,100689.75
2022-08-03T06:20:41.670Z,100691.31
2022-08-03T06:23:08.156Z,100690.50
2022-08-03T06:25:43.086Z,100692.94
2022-08-03T06:28:18.952Z,100696.81
2022-08-03T06:30:46.637Z,100694.41
2022-08-03T06:33:16.692Z,100690.50
2022-08-03T06:35:43.147Z,100690.81
2022-08-03T06:38:12.964Z,100697.78
2022-08-03T06:40:42.125Z,100688.75
2022-08-03T06:43:12.674Z,100695.34
2022-08-03T06:45:39.708Z,100687.78
2022-08-03T06:48:08.206Z,100697.06
2022-08-03T06:50:37.730Z,100694.63
2022-08-03T06:53:05.350Z,100698.81
2022-08-03T06:55:32.368Z,100699.16
2022-08-03T06:57:59.756Z,100695.50
2022-08-03T07:00:30.872Z,100697.94
2022-08-03T07:02:58.411Z,100693.53
2022-08-03T07:05:25.403Z,100700.84
2022-08-03T07:07:55.735Z,100702.31
2022-08-03T07:10:22.277Z,100709.88
2022-08-03T07:12:55.596Z,100705.72
2022-08-03T07:15:53.938Z,100714.50
2022-08-03T07:18:10.872Z,100712.63
2022-08-03T07:20:37.365Z,100712.28
2022-08-03T07:23:03.815Z,100708.31
2022-08-03T07:25:30.244Z,100704.50
2022-08-03T07:27:56.808Z,100711.41
2022-08-03T07:30:24.766Z,100705.31
2022-08-03T07:32:51.279Z,100707.94
2022-08-03T07:35:24.980Z,100706.13
2022-08-03T07:37:54.861Z,100707.66
2022-08-03T07:40:22.402Z,100703.13
2022-08-03T07:42:52.102Z,100708.78
2022-08-03T07:45:23.209Z,100708.66
2022-08-03T07:47:53.723Z,100716.22
2022-08-03T07:50:20.733Z,100716.38
2022-08-03T07:52:51.485Z,100712.56
2022-08-03T07:55:20.792Z,100701.91
2022-08-03T07:57:48.074Z,100702.53
2022-08-03T08:00:17.439Z,100705.59
2022-08-03T08:02:44.523Z,100698.13
2022-08-03T08:05:11.476Z,100695.28
2022-08-03T08:07:38.829Z,100696.34
2022-08-03T08:10:06.925Z,100707.91
2022-08-03T08:12:33.626Z,100703.28
2022-08-03T08:15:00.158Z,100696.13
2022-08-03T08:17:26.861Z,100693.25
2022-08-03T08:19:53.723Z,100690.94
2022-08-03T08:22:30.146Z,100690.28
2022-08-03T08:24:58.386Z,100696.75
2022-08-03T08:27:24.937Z,100688.28
2022-08-03T08:29:55.312Z,100687.84
2022-08-03T08:32:24.046Z,100687.16
2022-08-03T08:34:50.900Z,100690.75
2022-08-03T08:37:17.455Z,100690.41
2022-08-03T08:39:43.912Z,100684.03
2022-08-03T08:42:10.548Z,100691.88
2022-08-03T08:44:37.181Z,100700.59
2022-08-03T08:47:04.441Z,100687.84
2022-08-03T08:49:32.951Z,100688.22
2022-08-03T08:52:01.617Z,100696.84
2022-08-03T08:54:29.728Z,100689.50
2022-08-03T08:57:01.844Z,100695.28
2022-08-03T08:59:47.807Z,100692.28
2022-08-03T09:02:14.790Z,100691.28
2022-08-03T09:04:41.458Z,100682.53
2022-08-03T09:07:19.709Z,100685.91
2022-08-03T09:10:10.531Z,100689.47
2022-08-03T09:12:42.174Z,100681.78
2022-08-03T09:15:33.052Z,100684.75
2022-08-03T09:18:04.095Z,100681.25
2022-08-03T09:20:33.134Z,100675.91
2022-08-03T09:23:18.998Z,100680.03
2022-08-03T09:25:59.919Z,100684.63
2022-08-03T09:29:01.649Z,100684.19
2022-08-03T09:31:22.465Z,100682.53
2022-08-03T09:33:49.425Z,100690.53
2022-08-03T09:36:35.652Z,100685.16
2022-08-03T09:39:06.336Z,100685.34
2022-08-03T09:41:33.518Z,100686.31
2022-08-03T09:44:00.051Z,100684.25
2022-08-03T09:46:28.432Z,100676.56
2022-08-03T09:49:11.908Z,100674.72
2022-08-03T09:52:33.932Z,100685.22
2022-08-03T09:54:30.647Z,100674.00
2022-08-03T09:56:58.154Z,100670.97
2022-08-03T09:59:32.800Z,100673.63
2022-08-03T10:02:00.485Z,100676.41
2022-08-03T10:04:27.696Z,100670.03
2022-08-03T10:07:08.368Z,100668.66
2022-08-03T10:09:38.070Z,100665.53
2022-08-03T10:12:12.373Z,100667.91
2022-08-03T10:14:41.885Z,100666.25
2022-08-03T10:17:09.510Z,100663.50
2022-08-03T10:19:36.450Z,100667.25
2022-08-03T10:22:10.564Z,100665.41
2022-08-03T10:24:39.254Z,100673.19
2022-08-03T10:27:11.333Z,100665.53
2022-08-03T10:29:39.654Z,100655.97
2022-08-03T10:32:24.663Z,100664.56
2022-08-03T10:34:59.884Z,100658.75
2022-08-03T10:37:32.245Z,100659.19
2022-08-03T10:40:00.578Z,100656.88
2022-08-03T10:42:31.272Z,100652.03
2022-08-03T10:45:06.860Z,100653.34
2022-08-03T10:47:34.975Z,100650.22
2022-08-03T10:50:02.191Z,100648.41
2022-08-03T10:52:31.899Z,100652.53
2022-08-03T10:55:18.975Z,100642.28
2022-08-03T10:57:56.254Z,100644.38
2022-08-03T11:00:27.230Z,100639.66
2022-08-03T11:03:06.700Z,100637.53
2022-08-03T11:05:36.512Z,100628.81
2022-08-03T11:08:21.748Z,100624.25
2022-08-03T11:10:49.732Z,100635.38
2022-08-03T11:13:21.960Z,100630.34
2022-08-03T11:15:50.873Z,100635.63
2022-08-03T11:18:17.682Z,100632.09
2022-08-03T11:20:47.169Z,100636.41
2022-08-03T11:23:15.077Z,100636.81
2022-08-03T11:26:18.103Z,100629.03
2022-08-03T11:28:48.252Z,100629.63
2022-08-03T11:31:48.777Z,100622.34
2022-08-03T11:34:13.398Z,100618.66
2022-08-03T11:37:17.873Z,100622.63
2022-08-03T11:39:46.621Z,100621.75
2022-08-03T11:42:22.131Z,100622.25
2022-08-03T11:44:56.840Z,100620.56
2022-08-03T11:47:26.928Z,100624.25
2022-08-03T11:49:59.146Z,100618.75
2022-08-03T11:52:27.322Z,100624.59
2022-08-03T11:54:56.934Z,100622.44
2022-08-03T11:59:17.464Z,100620.47
2022-08-03T12:00:23.482Z,100614.88
2022-08-03T12:03:00.761Z,100624.34
2022-08-03T12:05:54.700Z,100626.13
2022-08-03T12:08:27.119Z,100616.34
2022-08-03T12:10:55.289Z,100612.03
2022-08-03T12:14:45.594Z,100593.56
2022-08-03T12:16:10.066Z,100610.16
2022-08-03T12:18:37.104Z,100606.72
2022-08-03T12:21:09.360Z,100594.88
2022-08-03T12:23:37.939Z,100609.56
2022-08-03T12:26:07.118Z,100609.94
2022-08-03T12:28:37.791Z,100595.50
2022-08-03T12:31:09.444Z,100604.72
2022-08-03T12:33:56.039Z,100602.41
2022-08-03T12:36:22.699Z,100606.19
2022-08-03T12:39:04.300Z,100600.78
2022-08-03T12:41:34.138Z,100607.91
2022-08-03T12:44:05.390Z,100599.56
2022-08-03T12:46:47.409Z,100591.47
2022-08-03T12:49:17.072Z,100585.31
2022-08-03T12:51:43.580Z,100601.56
2022-08-03T12:54:24.331Z,100591.50
2022-08-03T12:57:06.533Z,100582.63
2022-08-03T12:59:49.866Z,100584.06
2022-08-03T13:02:25.550Z,100582.88
2022-08-03T13:04:54.491Z,100582.97
2022-08-03T13:07:22.323Z,100576.16
2022-08-03T13:09:52.928Z,100579.34
2022-08-03T13:12:21.517Z,100579.19
2022-08-03T13:14:50.362Z,100574.78
2022-08-03T13:17:17.140Z,100566.16
2022-08-03T13:19:44.819Z,100574.00
2022-08-03T13:22:23.113Z,100575.16
2022-08-03T13:24:51.994Z,100569.66
2022-08-03T13:28:01.271Z,100569.88
2022-08-03T13:30:07.127Z,100571.50
2022-08-03T13:32:34.153Z,100561.13
2022-08-03T13:35:02.510Z,100571.13
2022-08-03T13:37:29.778Z,100560.41
2022-08-03T13:39:58.646Z,100558.16
2022-08-03T13:42:27.435Z,100562.38
2022-08-03T13:44:53.924Z,100556.88
2022-08-03T13:47:20.922Z,100566.47
2022-08-03T13:49:59.554Z,100558.75
2022-08-03T13:52:27.851Z,100556.25
2022-08-03T13:54:54.435Z,100553.19
2022-08-03T13:58:11.392Z,100551.19
2022-08-03T14:00:08.547Z,100553.78
2022-08-03T14:02:35.153Z,100559.66
2022-08-03T14:05:01.639Z,100542.56
2022-08-03T14:07:28.161Z,100543.97
2022-08-03T14:09:54.647Z,100544.91
2022-08-03T14:12:21.102Z,100541.31
2022-08-03T14:14:47.566Z,100531.56
2022-08-03T14:17:14.078Z,100529.41
2022-08-03T14:19:53.096Z,100534.06
2022-08-03T14:22:21.066Z,100538.09
2022-08-03T14:24:47.788Z,100527.72
2022-08-03T14:27:16.401Z,100535.81
2022-08-03T14:29:43.211Z,100531.22
2022-08-03T14:32:13.184Z,100523.44
2022-08-03T14:34:40.762Z,100522.22
2022-08-03T14:37:07.276Z,100522.78
2022-08-03T14:42:20.452Z,100525.72
2022-08-03T14:44:47.709Z,100528.66
2022-08-03T14:47:14.661Z,100524.06
2022-08-03T14:50:36.395Z,100532.28
2022-08-03T14:52:28.107Z,100530.78
2022-08-03T14:54:54.612Z,100526.72
2022-08-03T14:57:21.423Z,100525.13
2022-08-03T14:59:54.094Z,100520.19
2022-08-03T15:02:24.919Z,100524.28
2022-08-03T15:04:52.066Z,100527.41
2022-08-03T15:07:19.012Z,100522.53
2022-08-03T15:09:45.904Z,100520.38
2022-08-03T15:12:12.519Z,100517.88
2022-08-03T15:14:38.997Z,100511.88
2022-08-03T15:17:06.519Z,100510.03
2022-08-03T15:20:03.516Z,100504.09
2022-08-03T15:22:20.676Z,100512.69
2022-08-03T15:24:51.273Z,100507.13
2022-08-03T15:27:17.912Z,100510.44
2022-08-03T15:30:06.176Z,100496.41
2022-08-03T15:32:31.025Z,100497.84
2022-08-03T15:34:57.552Z,100499.47
2022-08-03T15:37:25.654Z,100498.69
2022-08-03T15:40:00.150Z,100499.97
2022-08-03T15:42:29.491Z,100496.38
2022-08-03T15:44:56.136Z,100502.88
2022-08-03T15:47:22.887Z,100495.97
2022-08-03T15:49:49.474Z,100498.66
2022-08-03T15:52:16.115Z,100492.78
2022-08-03T15:54:42.707Z,100493.00
2022-08-03T15:57:09.174Z,100489.13
2022-08-03T15:59:35.675Z,100491.22
2022-08-03T16:02:02.404Z,100485.81
2022-08-03T16:04:28.925Z,100487.69
2022-08-03T16:06:55.432Z,100493.53
2022-08-03T16:09:24.174Z,100481.06
2022-08-03T16:12:15.444Z,100486.38
2022-08-03T16:14:51.795Z,100485.75
2022-08-03T16:17:19.526Z,100481.69
2022-08-03T16:19:46.247Z,100482.25
2022-08-03T16:22:14.406Z,100484.16
2022-08-03T16:24:41.273Z,100476.09
2022-08-03T16:27:17.422Z,100479.44
2022-08-03T16:29:54.543Z,100480.47
2022-08-03T16:32:21.051Z,100476.78
2022-08-03T16:34:48.199Z,100480.94
2022-08-03T16:37:37.799Z,100480.78
2022-08-03T16:40:02.306Z,100480.34
2022-08-03T16:42:28.851Z,100483.41
2022-08-03T16:44:55.359Z,100485.41
2022-08-03T16:47:22.798Z,100481.88
2022-08-03T16:49:54.392Z,100493.09
2022-08-03T16:52:23.305Z,100490.09
2022-08-03T16:54:52.718Z,100492.84
2022-08-03T16:57:56.242Z,100486.69
2022-08-03T17:00:08.938Z,100493.31
2022-08-03T17:02:36.328Z,100488.66
2022-08-03T17:05:03.350Z,100488.31
2022-08-03T17:07:30.502Z,100499.28
2022-08-03T17:09:57.633Z,100492.72
2022-08-03T17:12:26.901Z,100496.22
2022-08-03T17:14:54.085Z,100496.28
2022-08-03T17:17:29.879Z,100492.69
2022-08-03T17:20:11.342Z,100494.97
2022-08-03T17:22:45.340Z,100495.56
2022-08-03T17:25:22.132Z,100494.88
2022-08-03T17:28:50.674Z,100494.63
2022-08-03T17:31:22.657Z,100486.69
2022-08-03T17:33:54.869Z,100485.09
2022-08-03T17:36:27.303Z,100483.53
2022-08-03T17:39:06.571Z,100486.09
2022-08-03T17:41:37.891Z,100490.84
2022-08-03T17:44:35.311Z,100485.31
2022-08-03T17:47:02.390Z,100485.72
2022-08-03T17:49:28.979Z,100493.31
2022-08-03T17:52:06.106Z,100494.28
2022-08-03T17:58:02.617Z,100501.06
2022-08-03T18:00:59.634Z,100502.53
2022-08-03T18:03:58.009Z,100505.47
2022-08-03T18:06:30.937Z,100501.06
2022-08-03T18:09:04.807Z,100500.00
2022-08-03T18:14:57.860Z,100507.03
2022-08-03T18:17:55.719Z,100505.13
2022-08-03T18:20:34.156Z,100501.53
2022-08-03T18:23:07.323Z,100502.25
2022-08-03T18:25:48.608Z,100498.56
2022-08-03T18:28:18.497Z,100498.03
2022-08-03T18:36:30.902Z,100499.28
2022-08-03T18:39:02.366Z,100498.81
2022-08-03T18:41:32.067Z,100497.63
2022-08-03T18:44:08.203Z,100498.09
2022-08-03T18:47:26.325Z,100506.59
2022-08-03T18:50:03.305Z,100507.59
2022-08-03T18:52:45.934Z,100503.66
2022-08-03T18:58:51.407Z,100513.34
2022-08-03T19:01:59.859Z,100508.41
2022-08-03T19:04:32.999Z,100517.94
2022-08-03T19:07:11.217Z,100514.91
2022-08-03T19:09:52.199Z,100525.25
2022-08-03T19:12:37.411Z,100518.19
2022-08-03T19:15:12.415Z,100521.91
2022-08-03T19:17:53.702Z,100522.59
2022-08-03T19:20:30.705Z,100523.03
2022-08-03T19:22:58.622Z,100520.97
2022-08-03T19:25:33.402Z,100519.75
2022-08-03T19:28:13.143Z,100520.19
2022-08-03T19:30:40.440Z,100520.75
2022-08-03T19:33:09.865Z,100513.75
2022-08-03T19:35:51.132Z,100520.59
2022-08-03T19:38:27.393Z,100523.94
2022-08-03T19:40:58.447Z,100530.25
2022-08-03T19:43:33.095Z,100528.56
2022-08-03T19:46:15.228Z,100525.19
2022-08-03T19:48:59.394Z,100521.91
2022-08-03T19:51:59.034Z,100523.81
2022-08-03T19:54:29.936Z,100524.00
2022-08-03T19:57:00.166Z,100514.47
2022-08-03T19:59:30.317Z,100526.88
2022-08-03T20:01:57.461Z,100520.38
2022-08-03T20:04:24.332Z,100524.34
2022-08-03T20:06:52.190Z,100524.56
2022-08-03T20:09:20.336Z,100516.19
2022-08-03T20:11:47.783Z,100534.91
2022-08-03T20:14:20.782Z,100532.19
2022-08-03T20:16:53.744Z,100525.38
2022-08-03T20:19:20.357Z,100523.16
2022-08-03T20:21:48.762Z,100524.38
2022-08-03T20:24:48.107Z,100529.03
2022-08-03T20:27:19.767Z,100518.91
2022-08-03T20:30:07.887Z,100525.03
2022-08-03T20:32:35.272Z,100523.53
2022-08-03T20:35:01.777Z,100525.56
2022-08-03T20:37:30.447Z,100535.28
2022-08-03T20:39:57.700Z,100530.38
2022-08-03T20:42:24.676Z,100529.94
2022-08-03T20:47:50.377Z,100541.81
2022-08-03T20:50:18.272Z,100536.69
2022-08-03T20:52:49.737Z,100535.16
2022-08-03T20:58:07.732Z,100537.19
2022-08-03T21:00:34.643Z,100541.38
2022-08-03T21:03:01.141Z,100547.50
2022-08-03T21:05:47.734Z,100544.81
2022-08-03T21:08:15.907Z,100542.31
2022-08-03T21:10:42.913Z,100546.28
2022-08-03T21:13:00.961Z,100514.28
2022-08-03T21:13:04.328Z,100496.59
2022-08-03T21:13:04.463Z,100501.81
2022-08-03T21:13:04.626Z,100504.91
2022-08-03T21:13:05.029Z,100497.47
2022-08-03T21:13:07.320Z,100537.59
2022-08-03T21:13:12.649Z,100539.16
2022-08-03T21:13:23.714Z,100545.66
2022-08-03T21:16:03.209Z,100545.22
2022-08-03T21:18:48.888Z,100543.94
2022-08-03T21:21:17.813Z,100545.78
2022-08-03T21:23:49.175Z,100548.75
2022-08-03T21:26:18.496Z,100544.50
2022-08-03T21:28:46.818Z,100538.63
2022-08-03T21:31:14.071Z,100545.16
2022-08-03T21:33:40.922Z,100538.03
2022-08-03T21:36:11.012Z,100542.66
2022-08-03T21:38:37.635Z,100541.59
2022-08-03T21:41:04.146Z,100536.47
2022-08-03T21:43:30.638Z,100551.34
2022-08-03T21:46:02.928Z,100537.50
2022-08-03T21:48:39.677Z,100548.25
2022-08-03T21:51:10.079Z,100547.03
2022-08-03T21:54:02.676Z,100546.19
2022-08-03T21:56:27.869Z,100537.66
2022-08-03T21:58:56.814Z,100546.66
2022-08-03T22:01:25.703Z,100547.44
2022-08-03T22:03:54.887Z,100548.03
2022-08-03T22:06:23.028Z,100543.63
2022-08-03T22:08:53.589Z,100541.44
2022-08-03T22:11:20.562Z,100544.09
2022-08-03T22:13:47.618Z,100546.66
2022-08-03T22:16:15.361Z,100549.38
2022-08-03T22:18:44.040Z,100546.81
2022-08-03T22:21:13.325Z,100554.84
2022-08-03T22:23:51.493Z,100560.69
2022-08-03T22:26:34.610Z,100552.97
2022-08-03T22:29:01.729Z,100551.28
2022-08-03T22:31:30.745Z,100552.66
2022-08-03T22:34:14.901Z,100554.75
2022-08-03T22:36:41.827Z,100557.69
2022-08-03T22:39:08.509Z,100548.81
2022-08-03T22:41:35.204Z,100560.28
2022-08-03T22:44:04.608Z,100559.06
2022-08-03T22:46:33.849Z,100552.06
2022-08-03T22:49:01.424Z,100558.34
2022-08-03T22:51:28.132Z,100559.13
2022-08-03T22:53:54.939Z,100561.19
2022-08-03T22:56:22.025Z,100564.09
2022-08-03T22:58:48.511Z,100569.81
2022-08-03T23:01:19.741Z,100577.84
2022-08-03T23:03:59.764Z,100582.72
2022-08-03T23:06:34.491Z,100571.88
2022-08-03T23:09:03.933Z,100574.66
2022-08-03T23:11:30.958Z,100570.63
2022-08-03T23:13:59.878Z,100572.31
2022-08-03T23:16:29.114Z,100567.00
2022-08-03T23:18:58.776Z,100570.69
2022-08-03T23:21:53.509Z,100569.84
2022-08-03T23:24:25.986Z,100564.63
2022-08-03T23:26:57.149Z,100568.94
2022-08-03T23:29:23.812Z,100570.22
2022-08-03T23:31:53.561Z,100571.19
2022-08-03T23:34:40.312Z,100566.31
2022-08-03T23:37:06.811Z,100578.63
2022-08-03T23:39:35.218Z,100566.78
2022-08-03T23:42:02.965Z,100563.44
2022-08-03T23:44:30.533Z,100565.28
2022-08-03T23:46:57.264Z,100569.22
2022-08-03T23:49:23.762Z,100568.47
2022-08-03T23:51:59.041Z,100571.94
2022-08-03T23:55:07.973Z,100575.03
2022-08-03T23:57:43.703Z,100574.75
